createdAt,value
2023-02-25T00:00:30.728Z,1.07
2023-02-25T00:02:39.291Z,1.20
2023-02-25T00:04:47.744Z,1.17
2023-02-25T00:06:57.988Z,1.40
2023-02-25T00:09:07.664Z,1.30
2023-02-25T00:11:18.069Z,0.90
2023-02-25T00:13:26.588Z,1.10
2023-02-25T00:15:35.319Z,1.07
2023-02-25T00:17:44.356Z,1.30
2023-02-25T00:19:53.093Z,1.33
2023-02-25T00:22:03.050Z,1.17
2023-02-25T00:24:16.781Z,1.30
2023-02-25T00:26:25.811Z,1.00
2023-02-25T00:28:35.372Z,1.10
2023-02-25T00:30:44.104Z,0.83
2023-02-25T00:32:53.014Z,1.80
2023-02-25T00:35:03.358Z,1.10
2023-02-25T00:37:13.473Z,1.37
2023-02-25T00:39:21.923Z,1.10
2023-02-25T00:41:31.473Z,1.27
2023-02-25T00:43:42.464Z,1.50
2023-02-25T00:45:51.000Z,1.30
2023-02-25T00:47:59.892Z,1.50
2023-02-25T00:50:10.012Z,1.50
2023-02-25T00:52:20.703Z,1.70
2023-02-25T00:54:29.558Z,1.60
2023-02-25T00:56:38.395Z,1.63
2023-02-25T00:58:48.685Z,1.70
2023-02-25T01:00:57.790Z,1.87
2023-02-25T01:03:06.463Z,1.60
2023-02-25T01:05:15.403Z,1.77
2023-02-25T01:07:25.544Z,1.53
2023-02-25T01:09:34.963Z,2.00
2023-02-25T01:11:46.019Z,1.73
2023-02-25T01:13:55.210Z,1.77
2023-02-25T01:16:04.224Z,1.90
2023-02-25T01:18:12.568Z,2.03
2023-02-25T01:20:22.740Z,1.93
2023-02-25T01:22:32.858Z,2.20
2023-02-25T01:24:41.487Z,2.07
2023-02-25T01:26:51.625Z,1.83
2023-02-25T01:29:00.098Z,2.10
2023-02-25T01:31:10.249Z,2.00
2023-02-25T01:33:18.998Z,2.13
2023-02-25T01:35:27.819Z,1.47
2023-02-25T01:37:38.207Z,1.73
2023-02-25T01:39:46.970Z,2.17
2023-02-25T01:41:57.990Z,2.13
2023-02-25T01:44:09.906Z,1.93
2023-02-25T01:46:18.395Z,2.50
2023-02-25T01:48:29.592Z,2.00
2023-02-25T01:50:44.323Z,2.33
2023-02-25T01:52:57.865Z,1.90
2023-02-25T01:55:09.789Z,2.10
2023-02-25T01:57:19.468Z,2.07
2023-02-25T01:59:30.546Z,2.60
2023-02-25T02:01:41.209Z,2.77
2023-02-25T02:03:51.460Z,3.10
2023-02-25T02:06:10.699Z,3.30
2023-02-25T02:08:21.190Z,3.20
2023-02-25T02:10:29.748Z,3.03
2023-02-25T02:12:42.002Z,3.10
2023-02-25T02:14:50.657Z,3.60
2023-02-25T02:17:18.093Z,3.50
2023-02-25T02:19:38.352Z,3.43
2023-02-25T02:22:01.163Z,3.07
2023-02-25T02:24:51.517Z,2.90
2023-02-25T02:27:04.025Z,1.90
2023-02-25T02:29:23.902Z,2.03
2023-02-25T02:31:50.677Z,2.57
2023-02-25T02:34:12.549Z,2.47
2023-02-25T02:36:30.599Z,2.20
2023-02-25T02:38:45.521Z,2.10
2023-02-25T02:41:03.450Z,2.07
2023-02-25T02:43:24.638Z,2.47
2023-02-25T02:45:40.927Z,2.40
2023-02-25T02:47:56.454Z,2.17
2023-02-25T02:50:09.794Z,2.30
2023-02-25T02:52:22.428Z,2.87
2023-02-25T02:54:36.750Z,2.00
2023-02-25T02:56:48.514Z,2.20
2023-02-25T02:59:03.714Z,2.77
2023-02-25T03:01:15.473Z,1.17
2023-02-25T03:03:36.745Z,2.00
2023-02-25T03:05:50.404Z,1.80
2023-02-25T03:08:08.460Z,1.77
2023-02-25T03:10:21.985Z,1.50
2023-02-25T03:12:31.059Z,1.23
2023-02-25T03:14:40.088Z,1.67
2023-02-25T03:16:54.358Z,1.60
2023-02-25T03:19:09.638Z,1.30
2023-02-25T03:21:23.777Z,1.63
2023-02-25T03:23:35.695Z,1.60
2023-02-25T03:25:47.942Z,1.10
2023-02-25T03:27:59.167Z,1.40
2023-02-25T03:30:13.161Z,1.00
2023-02-25T03:32:23.659Z,0.73
2023-02-25T03:34:37.751Z,1.03
2023-02-25T03:36:51.150Z,0.90
2023-02-25T03:39:05.078Z,1.07
2023-02-25T03:41:17.208Z,0.80
2023-02-25T03:43:31.071Z,0.70
2023-02-25T03:45:42.709Z,0.80
2023-02-25T03:47:52.075Z,0.60
2023-02-25T03:50:07.890Z,0.50
2023-02-25T03:52:21.313Z,0.50
2023-02-25T03:54:30.140Z,0.50
2023-02-25T03:56:44.408Z,0.70
2023-02-25T03:58:53.005Z,0.23
2023-02-25T04:01:04.021Z,0.30
2023-02-25T04:03:12.857Z,0.50
2023-02-25T04:05:27.857Z,0.60
2023-02-25T04:07:36.445Z,0.40
2023-02-25T04:09:45.276Z,0.40
2023-02-25T04:11:57.590Z,0.50
2023-02-25T04:14:05.932Z,0.50
2023-02-25T04:16:14.714Z,0.27
2023-02-25T04:18:25.105Z,0.20
2023-02-25T04:20:35.714Z,0.20
2023-02-25T04:22:45.000Z,0.50
2023-02-25T04:24:53.836Z,0.40
2023-02-25T04:27:03.041Z,0.30
2023-02-25T04:29:11.619Z,0.30
2023-02-25T04:31:20.487Z,0.30
2023-02-25T04:33:29.033Z,0.40
2023-02-25T04:35:39.844Z,0.60
2023-02-25T04:37:48.236Z,0.40
2023-02-25T04:39:57.216Z,0.30
2023-02-25T04:42:06.493Z,0.30
2023-02-25T04:44:15.981Z,0.50
2023-02-25T04:46:24.776Z,0.47
2023-02-25T04:48:33.782Z,0.20
2023-02-25T04:50:44.098Z,0.43
2023-02-25T04:52:52.386Z,0.50
2023-02-25T04:55:01.485Z,0.57
2023-02-25T04:57:12.196Z,0.33
2023-02-25T04:59:21.434Z,0.60
2023-02-25T05:01:31.885Z,0.47
2023-02-25T05:03:40.760Z,0.30
2023-02-25T05:05:50.688Z,0.50
2023-02-25T05:07:59.629Z,0.30
2023-02-25T05:10:09.406Z,0.30
2023-02-25T05:12:17.969Z,0.40
2023-02-25T05:14:26.590Z,0.27
2023-02-25T05:16:35.643Z,0.20
2023-02-25T05:18:45.912Z,0.30
2023-02-25T05:20:55.649Z,0.40
2023-02-25T05:23:04.280Z,0.23
2023-02-25T05:25:13.186Z,0.20
2023-02-25T05:27:21.862Z,0.20
2023-02-25T05:29:30.841Z,0.40
2023-02-25T05:31:40.681Z,0.27
2023-02-25T05:33:49.350Z,0.33
2023-02-25T05:35:59.171Z,0.27
2023-02-25T05:38:08.132Z,0.20
2023-02-25T05:40:17.423Z,0.30
2023-02-25T05:42:28.323Z,0.27
2023-02-25T05:44:36.689Z,0.40
2023-02-25T05:46:45.757Z,0.30
2023-02-25T05:48:54.585Z,0.30
2023-02-25T05:51:06.618Z,0.10
2023-02-25T05:53:16.188Z,0.33
2023-02-25T05:55:27.270Z,0.20
2023-02-25T05:57:35.679Z,0.20
2023-02-25T05:59:44.011Z,0.50
2023-02-25T06:01:52.797Z,0.50
2023-02-25T06:04:01.525Z,0.30
2023-02-25T06:06:13.346Z,0.33
2023-02-25T06:08:22.046Z,0.40
2023-02-25T06:10:38.363Z,0.30
2023-02-25T06:12:46.852Z,0.30
2023-02-25T06:14:55.343Z,0.40
2023-02-25T06:17:04.807Z,0.20
2023-02-25T06:19:14.176Z,0.53
2023-02-25T06:21:24.737Z,0.40
2023-02-25T06:23:34.569Z,0.60
2023-02-25T06:25:43.629Z,0.20
2023-02-25T06:27:52.285Z,0.30
2023-02-25T06:30:02.839Z,0.30
2023-02-25T06:32:12.197Z,0.53
2023-02-25T06:34:21.220Z,0.43
2023-02-25T06:36:31.200Z,0.50
2023-02-25T06:38:40.572Z,0.30
2023-02-25T06:40:50.030Z,0.53
2023-02-25T06:42:59.069Z,0.50
2023-02-25T06:45:08.692Z,0.60
2023-02-25T06:47:17.267Z,0.60
2023-02-25T06:49:26.367Z,0.43
2023-02-25T06:51:36.665Z,0.37
2023-02-25T06:53:47.669Z,0.60
2023-02-25T06:55:56.330Z,0.70
2023-02-25T06:58:05.313Z,0.50
2023-02-25T07:00:15.235Z,0.40
2023-02-25T07:02:23.678Z,0.43
2023-02-25T07:04:32.094Z,2.13
2023-02-25T07:06:42.730Z,7.83
2023-02-25T07:08:51.273Z,4.90
2023-02-25T07:11:15.002Z,0.50
2023-02-25T07:13:24.047Z,2.87
2023-02-25T07:15:32.468Z,0.70
2023-02-25T07:17:40.931Z,5.27
2023-02-25T07:19:49.313Z,5.13
2023-02-25T07:21:59.929Z,0.90
2023-02-25T07:24:09.009Z,1.33
2023-02-25T07:26:19.100Z,1.70
2023-02-25T07:28:27.631Z,0.67
2023-02-25T07:30:36.235Z,0.63
2023-02-25T07:32:45.775Z,0.70
2023-02-25T07:34:54.768Z,0.87
2023-02-25T07:37:05.243Z,0.40
2023-02-25T07:39:14.064Z,0.50
2023-02-25T07:41:23.411Z,0.50
2023-02-25T07:43:32.379Z,0.40
2023-02-25T07:45:40.765Z,1.10
2023-02-25T07:47:49.674Z,0.80
2023-02-25T07:49:58.212Z,0.70
2023-02-25T07:52:08.339Z,0.40
2023-02-25T07:54:17.548Z,0.60
2023-02-25T07:56:28.150Z,0.70
2023-02-25T07:58:37.587Z,0.50
2023-02-25T08:00:47.736Z,0.40
2023-02-25T08:02:56.326Z,0.60
2023-02-25T08:05:04.827Z,0.50
2023-02-25T08:07:14.787Z,0.43
2023-02-25T08:09:23.440Z,0.50
2023-02-25T08:11:32.197Z,0.30
2023-02-25T08:13:41.989Z,0.33
2023-02-25T08:15:50.484Z,0.50
2023-02-25T08:17:59.546Z,0.70
2023-02-25T08:20:10.344Z,0.50
2023-02-25T08:22:20.488Z,0.70
2023-02-25T08:24:29.440Z,0.40
2023-02-25T08:26:37.896Z,0.60
2023-02-25T08:28:47.657Z,0.40
2023-02-25T08:30:56.419Z,1.10
2023-02-25T08:33:05.758Z,2.40
2023-02-25T08:35:15.279Z,0.40
2023-02-25T08:37:26.998Z,0.20
2023-02-25T08:39:37.131Z,0.47
2023-02-25T08:41:46.088Z,0.40
2023-02-25T08:43:55.843Z,0.83
2023-02-25T08:46:04.852Z,2.13
2023-02-25T08:48:14.065Z,0.50
2023-02-25T08:50:24.166Z,0.90
2023-02-25T08:52:35.514Z,0.97
2023-02-25T08:54:44.880Z,0.93
2023-02-25T08:56:55.813Z,0.57
2023-02-25T08:59:06.211Z,0.70
2023-02-25T09:01:16.672Z,1.10
2023-02-25T09:03:25.391Z,4.80
2023-02-25T09:05:34.698Z,1.03
2023-02-25T09:07:45.468Z,0.80
2023-02-25T09:09:54.625Z,0.60
2023-02-25T09:12:05.703Z,0.57
2023-02-25T09:14:15.572Z,0.50
2023-02-25T09:16:24.691Z,0.60
2023-02-25T09:18:34.133Z,0.80
2023-02-25T09:20:43.441Z,1.00
2023-02-25T09:22:57.316Z,0.70
2023-02-25T09:25:06.766Z,0.30
2023-02-25T09:27:16.206Z,0.70
2023-02-25T09:29:25.164Z,0.80
2023-02-25T09:31:37.178Z,0.57
2023-02-25T09:33:46.733Z,0.60
2023-02-25T09:35:56.233Z,0.60
2023-02-25T09:38:07.244Z,0.80
2023-02-25T09:40:19.320Z,0.70
2023-02-25T09:42:30.139Z,0.50
2023-02-25T09:44:41.380Z,0.60
2023-02-25T09:46:52.897Z,0.50
2023-02-25T09:49:03.975Z,0.73
2023-02-25T09:51:20.660Z,0.83
2023-02-25T09:53:34.538Z,0.67
2023-02-25T09:55:44.530Z,0.47
2023-02-25T09:57:58.298Z,0.70
2023-02-25T10:00:10.691Z,1.10
2023-02-25T10:02:24.023Z,0.80
2023-02-25T10:04:34.755Z,1.10
2023-02-25T10:06:44.619Z,0.90
2023-02-25T10:08:58.686Z,0.60
2023-02-25T10:11:12.740Z,1.07
2023-02-25T10:13:26.052Z,0.60
2023-02-25T10:15:39.450Z,0.50
2023-02-25T10:17:56.612Z,0.77
2023-02-25T10:20:25.650Z,0.60
2023-02-25T10:22:42.461Z,0.30
2023-02-25T10:24:56.992Z,0.40
2023-02-25T10:27:11.559Z,0.43
2023-02-25T10:29:26.053Z,0.50
2023-02-25T10:31:35.041Z,0.60
2023-02-25T10:33:47.082Z,0.50
2023-02-25T10:35:58.482Z,0.60
2023-02-25T10:38:07.268Z,0.80
2023-02-25T10:40:20.402Z,0.70
2023-02-25T10:42:29.181Z,0.83
2023-02-25T10:44:38.414Z,0.57
2023-02-25T10:46:51.957Z,0.63
2023-02-25T10:49:02.013Z,0.90
2023-02-25T10:51:12.221Z,0.50
2023-02-25T10:53:24.075Z,0.60
2023-02-25T10:55:40.833Z,0.70
2023-02-25T10:57:50.941Z,0.63
2023-02-25T11:00:03.287Z,0.70
2023-02-25T11:02:23.508Z,0.30
2023-02-25T11:04:36.473Z,0.70
2023-02-25T11:06:45.708Z,1.33
2023-02-25T11:08:55.556Z,2.17
2023-02-25T11:11:07.430Z,2.43
2023-02-25T11:13:28.955Z,0.73
2023-02-25T11:15:45.822Z,0.67
2023-02-25T11:17:55.981Z,0.60
2023-02-25T11:20:07.470Z,0.53
2023-02-25T11:22:18.879Z,0.90
2023-02-25T11:24:31.982Z,0.70
2023-02-25T11:26:45.134Z,0.70
2023-02-25T11:28:54.172Z,0.50
2023-02-25T11:31:11.675Z,0.63
2023-02-25T11:33:24.728Z,1.00
2023-02-25T11:35:37.553Z,1.10
2023-02-25T11:37:48.597Z,0.60
2023-02-25T11:39:58.756Z,0.70
2023-02-25T11:42:23.715Z,0.40
2023-02-25T11:44:33.590Z,0.70
2023-02-25T11:46:42.866Z,0.70
2023-02-25T11:48:52.680Z,0.73
2023-02-25T11:51:07.304Z,0.60
2023-02-25T11:53:21.589Z,0.93
2023-02-25T11:55:38.982Z,0.80
2023-02-25T11:57:55.817Z,0.60
2023-02-25T12:00:13.051Z,0.53
2023-02-25T12:02:25.323Z,0.50
2023-02-25T12:04:55.433Z,0.63
2023-02-25T12:07:18.721Z,0.50
2023-02-25T12:09:42.532Z,1.03
2023-02-25T12:12:01.645Z,0.50
2023-02-25T12:14:28.902Z,0.70
2023-02-25T12:16:59.061Z,0.63
2023-02-25T12:19:22.698Z,0.73
2023-02-25T12:21:54.784Z,0.40
2023-02-25T12:24:21.763Z,0.70
2023-02-25T12:26:38.568Z,0.90
2023-02-25T12:29:03.383Z,0.93
2023-02-25T12:31:23.901Z,0.93
2023-02-25T12:33:48.413Z,0.70
2023-02-25T12:36:04.222Z,0.87
2023-02-25T12:38:33.548Z,0.40
2023-02-25T12:40:55.102Z,0.63
2023-02-25T12:43:10.338Z,0.60
2023-02-25T12:45:34.094Z,0.80
2023-02-25T12:47:50.855Z,0.87
2023-02-25T12:50:09.700Z,0.83
2023-02-25T12:52:25.101Z,0.90
2023-02-25T12:54:45.897Z,1.10
2023-02-25T12:57:11.396Z,0.70
2023-02-25T12:59:29.745Z,0.83
2023-02-25T13:01:48.341Z,0.77
2023-02-25T13:04:05.566Z,1.07
2023-02-25T13:06:21.931Z,0.90
2023-02-25T13:08:37.702Z,1.17
2023-02-25T13:10:56.415Z,0.70
2023-02-25T13:13:21.067Z,0.90
2023-02-25T13:15:35.563Z,0.63
2023-02-25T13:17:48.892Z,0.83
2023-02-25T13:20:16.826Z,0.63
2023-02-25T13:22:38.760Z,0.70
2023-02-25T13:24:50.709Z,0.70
2023-02-25T13:27:17.847Z,0.60
2023-02-25T13:29:39.190Z,0.70
2023-02-25T13:31:53.755Z,0.70
2023-02-25T13:34:07.346Z,0.50
2023-02-25T13:36:26.812Z,0.80
2023-02-25T13:38:44.250Z,1.50
2023-02-25T13:40:57.539Z,0.90
2023-02-25T13:43:15.434Z,0.93
2023-02-25T13:45:33.406Z,0.50
2023-02-25T13:47:55.511Z,0.70
2023-02-25T13:50:22.755Z,0.80
2023-02-25T13:52:33.630Z,0.87
2023-02-25T13:54:58.229Z,0.77
2023-02-25T13:57:12.630Z,0.63
2023-02-25T13:59:28.307Z,1.03
2023-02-25T14:01:42.398Z,0.97
2023-02-25T14:04:15.012Z,0.50
2023-02-25T14:06:31.892Z,1.30
2023-02-25T14:08:55.819Z,0.83
2023-02-25T14:11:08.819Z,0.80
2023-02-25T14:13:39.621Z,1.23
2023-02-25T14:15:55.295Z,0.80
2023-02-25T14:18:18.816Z,0.70
2023-02-25T14:20:36.826Z,0.60
2023-02-25T14:22:46.707Z,0.60
2023-02-25T14:25:03.995Z,0.73
2023-02-25T14:27:21.127Z,1.00
2023-02-25T14:29:34.021Z,1.00
2023-02-25T14:31:53.876Z,1.00
2023-02-25T14:34:09.432Z,1.03
2023-02-25T14:36:26.745Z,0.80
2023-02-25T14:38:41.585Z,0.70
2023-02-25T14:40:52.266Z,0.60
2023-02-25T14:43:09.417Z,0.60
2023-02-25T14:45:21.010Z,0.67
2023-02-25T14:47:34.024Z,0.57
2023-02-25T14:49:44.286Z,0.83
2023-02-25T14:52:02.901Z,0.83
2023-02-25T14:54:26.688Z,1.00
2023-02-25T14:56:47.813Z,1.20
2023-02-25T14:59:26.757Z,1.00
2023-02-25T15:01:50.111Z,0.83
2023-02-25T15:04:19.346Z,0.80
2023-02-25T15:06:33.835Z,0.70
2023-02-25T15:09:01.133Z,0.40
2023-02-25T15:11:17.103Z,0.80
2023-02-25T15:13:36.195Z,1.07
2023-02-25T15:15:55.732Z,0.77
2023-02-25T15:18:20.124Z,0.90
2023-02-25T15:20:34.644Z,0.60
2023-02-25T15:22:55.562Z,0.97
2023-02-25T15:25:25.603Z,0.60
2023-02-25T15:27:46.331Z,0.40
2023-02-25T15:29:59.615Z,0.77
2023-02-25T15:32:13.980Z,0.80
2023-02-25T15:34:40.785Z,0.63
2023-02-25T15:36:52.423Z,0.47
2023-02-25T15:39:03.557Z,0.50
2023-02-25T15:41:38.656Z,0.70
2023-02-25T15:43:47.698Z,0.60
2023-02-25T15:46:16.811Z,0.80
2023-02-25T15:48:35.307Z,0.97
2023-02-25T15:50:54.074Z,0.90
2023-02-25T15:53:03.563Z,0.40
2023-02-25T15:55:21.802Z,0.50
2023-02-25T15:57:38.005Z,0.73
2023-02-25T15:59:48.669Z,0.70
2023-02-25T16:01:57.663Z,0.57
2023-02-25T16:04:15.199Z,0.83
2023-02-25T16:06:25.569Z,0.50
2023-02-25T16:08:37.781Z,0.63
2023-02-25T16:10:48.222Z,0.80
2023-02-25T16:12:59.047Z,1.08
2023-02-25T16:15:09.363Z,0.60
2023-02-25T16:17:20.168Z,0.70
2023-02-25T16:19:33.983Z,0.40
2023-02-25T16:21:46.663Z,0.40
2023-02-25T16:23:56.349Z,0.50
2023-02-25T16:26:08.494Z,0.50
2023-02-25T16:28:22.647Z,0.70
2023-02-25T16:30:34.417Z,0.60
2023-02-25T16:32:49.523Z,0.90
2023-02-25T16:35:05.016Z,0.60
2023-02-25T16:37:15.370Z,0.40
2023-02-25T16:39:24.915Z,0.43
2023-02-25T16:41:38.455Z,1.20
2023-02-25T16:43:48.180Z,0.60
2023-02-25T16:45:58.583Z,0.60
2023-02-25T16:48:09.293Z,0.60
2023-02-25T16:50:23.722Z,0.80
2023-02-25T16:52:33.816Z,0.47
2023-02-25T16:54:42.715Z,0.60
2023-02-25T16:56:56.266Z,0.67
2023-02-25T16:59:09.365Z,0.90
2023-02-25T17:01:24.569Z,0.60
2023-02-25T17:03:35.256Z,0.33
2023-02-25T17:05:45.768Z,0.57
2023-02-25T17:07:57.212Z,0.60
2023-02-25T17:10:07.991Z,0.73
2023-02-25T17:12:19.102Z,0.60
2023-02-25T17:14:28.049Z,0.63
2023-02-25T17:16:39.650Z,0.80
2023-02-25T17:18:50.750Z,0.67
2023-02-25T17:21:03.957Z,0.87
2023-02-25T17:23:14.411Z,1.20
2023-02-25T17:25:24.950Z,1.07
2023-02-25T17:27:33.998Z,0.80
2023-02-25T17:29:43.434Z,1.03
2023-02-25T17:31:53.066Z,0.70
2023-02-25T17:34:03.752Z,0.80
2023-02-25T17:36:16.692Z,0.60
2023-02-25T17:38:26.553Z,0.80
2023-02-25T17:40:35.810Z,0.77
2023-02-25T17:42:47.084Z,1.00
2023-02-25T17:44:55.701Z,0.93
2023-02-25T17:47:04.708Z,0.53
2023-02-25T17:49:21.562Z,0.50
2023-02-25T17:51:33.723Z,0.80
2023-02-25T17:53:48.217Z,0.83
2023-02-25T17:55:56.917Z,0.90
2023-02-25T17:58:07.296Z,1.00
2023-02-25T18:00:23.048Z,1.13
2023-02-25T18:02:33.615Z,1.53
2023-02-25T18:04:43.131Z,2.20
2023-02-25T18:06:55.512Z,0.80
2023-02-25T18:09:04.804Z,0.77
2023-02-25T18:11:23.760Z,0.90
2023-02-25T18:13:37.095Z,0.93
2023-02-25T18:15:50.809Z,1.10
2023-02-25T18:18:03.503Z,1.47
2023-02-25T18:20:28.080Z,0.83
2023-02-25T18:22:39.556Z,1.67
2023-02-25T18:24:53.294Z,1.30
2023-02-25T18:27:22.509Z,1.10
2023-02-25T18:29:31.366Z,1.20
2023-02-25T18:31:41.658Z,1.10
2023-02-25T18:33:51.113Z,1.00
2023-02-25T18:36:00.146Z,1.07
2023-02-25T18:38:15.113Z,0.70
2023-02-25T18:40:25.335Z,1.23
2023-02-25T18:42:34.092Z,1.33
2023-02-25T18:44:43.054Z,1.00
2023-02-25T18:46:51.693Z,1.17
2023-02-25T18:49:00.477Z,1.10
2023-02-25T18:51:13.085Z,2.10
2023-02-25T18:53:24.928Z,2.70
2023-02-25T18:55:35.286Z,1.90
2023-02-25T18:57:44.648Z,1.80
2023-02-25T18:59:54.297Z,1.83
2023-02-25T19:02:03.124Z,1.50
2023-02-25T19:04:13.453Z,1.00
2023-02-25T19:06:22.535Z,1.27
2023-02-25T19:08:33.413Z,1.50
2023-02-25T19:10:41.925Z,0.80
2023-02-25T19:12:51.754Z,1.10
2023-02-25T19:15:02.100Z,1.23
2023-02-25T19:17:14.414Z,1.57
2023-02-25T19:19:23.530Z,1.40
2023-02-25T19:21:32.325Z,0.90
2023-02-25T19:23:43.191Z,1.30
2023-02-25T19:25:54.527Z,1.10
2023-02-25T19:28:04.035Z,1.10
2023-02-25T19:30:14.868Z,1.10
2023-02-25T19:32:23.862Z,0.90
2023-02-25T19:34:33.164Z,1.10
2023-02-25T19:36:42.270Z,1.10
2023-02-25T19:38:52.810Z,1.17
2023-02-25T19:41:06.170Z,1.27
2023-02-25T19:43:15.403Z,1.67
2023-02-25T19:45:25.141Z,1.70
2023-02-25T19:47:34.054Z,1.63
2023-02-25T19:49:42.901Z,1.60
2023-02-25T19:51:53.043Z,1.40
2023-02-25T19:54:03.577Z,1.40
2023-02-25T19:56:12.956Z,1.33
2023-02-25T19:58:21.921Z,1.03
2023-02-25T20:00:31.146Z,1.27
2023-02-25T20:02:39.816Z,1.17
2023-02-25T20:04:48.759Z,1.00
2023-02-25T20:06:57.486Z,1.17
2023-02-25T20:09:08.455Z,0.90
2023-02-25T20:11:17.885Z,1.17
2023-02-25T20:13:26.536Z,0.80
2023-02-25T20:15:35.245Z,1.33
2023-02-25T20:17:44.719Z,1.90
2023-02-25T20:19:53.907Z,1.10
2023-02-25T20:22:03.115Z,1.63
2023-02-25T20:24:13.532Z,1.10
2023-02-25T20:26:24.414Z,0.87
2023-02-25T20:28:33.914Z,1.10
2023-02-25T20:30:43.080Z,1.27
2023-02-25T20:32:52.039Z,1.63
2023-02-25T20:35:01.132Z,2.07
2023-02-25T20:37:13.891Z,2.30
2023-02-25T20:39:44.086Z,1.80
2023-02-25T20:41:54.929Z,1.67
2023-02-25T20:44:05.538Z,1.50
2023-02-25T20:46:22.041Z,1.90
2023-02-25T20:48:31.987Z,1.53
2023-02-25T20:50:40.795Z,1.30
2023-02-25T20:52:50.123Z,1.53
2023-02-25T20:54:59.729Z,1.17
2023-02-25T20:57:11.560Z,2.10
2023-02-25T20:59:20.819Z,1.43
2023-02-25T21:01:29.930Z,1.37
2023-02-25T21:03:39.073Z,1.27
2023-02-25T21:05:47.665Z,0.93
2023-02-25T21:07:57.633Z,1.17
2023-02-25T21:10:06.419Z,1.00
2023-02-25T21:12:16.818Z,1.10
2023-02-25T21:14:25.524Z,0.90
2023-02-25T21:16:34.272Z,1.17
2023-02-25T21:18:42.960Z,0.93
2023-02-25T21:20:51.826Z,1.07
2023-02-25T21:23:00.987Z,1.57
2023-02-25T21:25:10.308Z,1.27
2023-02-25T21:27:20.515Z,1.17
2023-02-25T21:29:29.430Z,0.97
2023-02-25T21:31:38.621Z,0.70
2023-02-25T21:33:47.449Z,0.90
2023-02-25T21:35:56.705Z,0.90
2023-02-25T21:38:05.316Z,1.10
2023-02-25T21:40:15.031Z,1.30
2023-02-25T21:42:25.034Z,1.10
2023-02-25T21:44:33.897Z,1.20
2023-02-25T21:46:43.018Z,1.30
2023-02-25T21:48:53.373Z,1.50
2023-02-25T21:51:02.156Z,0.90
2023-02-25T21:53:11.263Z,1.17
2023-02-25T21:55:20.457Z,0.80
2023-02-25T21:57:30.884Z,0.80
2023-02-25T21:59:39.585Z,0.60
2023-02-25T22:01:48.434Z,0.70
2023-02-25T22:03:57.582Z,0.73
2023-02-25T22:06:06.870Z,0.63
2023-02-25T22:08:15.616Z,0.97
2023-02-25T22:10:24.227Z,0.70
2023-02-25T22:12:35.532Z,0.67
2023-02-25T22:14:44.433Z,0.63
2023-02-25T22:16:53.339Z,0.70
2023-02-25T22:19:02.140Z,0.60
2023-02-25T22:21:12.167Z,0.67
2023-02-25T22:23:20.801Z,0.50
2023-02-25T22:25:29.679Z,0.40
2023-02-25T22:27:39.834Z,0.50
2023-02-25T22:29:49.112Z,0.90
2023-02-25T22:31:58.126Z,0.50
2023-02-25T22:34:07.229Z,0.57
2023-02-25T22:36:17.119Z,0.60
2023-02-25T22:38:27.457Z,0.73
2023-02-25T22:40:36.282Z,0.63
2023-02-25T22:42:47.479Z,0.90
2023-02-25T22:44:56.381Z,0.90
2023-02-25T22:47:05.761Z,0.87
2023-02-25T22:49:14.676Z,1.20
2023-02-25T22:51:24.461Z,1.13
2023-02-25T22:53:33.259Z,0.80
2023-02-25T22:55:42.503Z,1.30
2023-02-25T22:57:52.791Z,0.90
2023-02-25T23:00:01.420Z,1.30
2023-02-25T23:02:10.498Z,1.57
2023-02-25T23:04:19.315Z,1.17
2023-02-25T23:06:42.962Z,1.67
2023-02-25T23:08:52.864Z,1.00
2023-02-25T23:11:08.803Z,1.00
2023-02-25T23:13:19.407Z,0.70
2023-02-25T23:15:28.832Z,0.60
2023-02-25T23:17:38.690Z,0.50
2023-02-25T23:19:47.282Z,0.73
2023-02-25T23:21:56.340Z,0.67
2023-02-25T23:24:07.553Z,0.60
2023-02-25T23:26:17.640Z,0.53
2023-02-25T23:28:28.086Z,0.57
2023-02-25T23:30:38.797Z,0.70
2023-02-25T23:32:48.199Z,0.50
2023-02-25T23:34:57.004Z,0.57
2023-02-25T23:37:06.259Z,0.70
2023-02-25T23:39:15.580Z,0.87
2023-02-25T23:41:24.545Z,0.70
2023-02-25T23:43:35.384Z,0.60
2023-02-25T23:45:46.896Z,0.60
2023-02-25T23:47:56.202Z,0.50
2023-02-25T23:50:05.309Z,0.60
2023-02-25T23:52:13.956Z,0.90
2023-02-25T23:54:23.982Z,0.67
2023-02-25T23:56:33.639Z,0.70
2023-02-25T23:58:44.204Z,0.50
